Latest Coastal Weather Observations for Flinders Island Airport

IDT60701

Issued at 6:52 am EST Wednesday 3 June 2020 (issued every 10 minutes, with the page automatically refreshed every 10 minutes)

About coastal observations | Map of coastal stations | Coastal observations for TAS | Marine services | Other Formats
Station Details ID: 099005 Name: FLINDERS ISLAND AIRPORT Lat: -40.09 Lon: 148.00 Height: 9.0 m
Data from the previous 72 hours. | See also: Recent months at Flinders Island Airport
Date/Time
EST
Wind Sea
Height
m
Swell Vis
km
Cloud Weather Temp
°C
Press
hPa
Rain since
9am
mm
Dir  Spd
kts
Gust
kts
Height
m
Period
s
Dir
03/06:30am SW 16 21 - - - - 10 - - 12.0 1020.6 0.8
03/06:00am SW 17 22 - - - - 10 Mostly clear - 12.0 1019.4 0.8
03/05:30am WSW 17 21 - - - - 10 Partly cloudy - 11.7 1018.5 0.8
03/05:00am WSW 19 25 - - - - 10 Partly cloudy - 11.8 1017.9 0.8
03/04:30am WSW 21 28 - - - - 10 Partly cloudy - 11.7 1017.2 0.8
03/04:00am SW 20 26 - - - - 10 Partly cloudy - 12.0 1016.7 0.8
03/03:30am SW 21 26 - - - - 10 - - 12.0 1015.7 0.8
03/03:00am SW 24 30 - - - - 10 Mostly clear - 12.2 1015.3 0.8
03/02:30am SW 24 30 - - - - 10 - - 12.0 1014.7 0.8
03/02:00am WSW 23 30 - - - - 10 - - 11.8 1014.2 0.8
03/01:30am WSW 25 31 - - - - 10 Partly cloudy - 11.7 1013.3 0.8
03/01:00am WSW 30 37 - - - - 10 Partly cloudy - 11.6 1013.0 0.8
03/12:30am WSW 30 39 - - - - 10 - - 11.8 1012.5 0.8
03/12:00am WSW 29 36 - - - - 10 Partly cloudy - 11.9 1012.3 0.8
 
Date/Time
EST
Wind Sea
Height
m
Swell Vis
km
Cloud Weather Temp
°C
Press
hPa
Rain since
9am
mm
Dir  Spd
kts
Gust
kts
Height
m
Period
s
Dir
02/11:30pm W 29 34 - - - - 10 Partly cloudy - 12.1 1012.2 0.8
02/11:01pm W 29 39 - - - - 10 Partly cloudy - 12.3 1011.7 0.8
02/11:00pm W 29 35 - - - - 10 Partly cloudy - 12.3 1011.6 0.8
02/10:39pm WSW 27 37 - - - - 10 Partly cloudy - 12.4 1011.7 0.8
02/10:30pm W 31 39 - - - - 10 Partly cloudy - 12.4 1011.7 0.8
02/10:11pm W 28 38 - - - - 10 Partly cloudy - 12.5 1011.4 0.8
02/10:00pm W 27 35 - - - - 10 Partly cloudy - 12.6 1011.2 0.8
02/09:32pm W 25 35 - - - - 10 Partly cloudy - 12.3 1011.4 0.8
02/09:30pm W 26 35 - - - - 10 Partly cloudy - 12.4 1011.4 0.8
02/09:25pm W 25 35 - - - - 10 Partly cloudy - 12.4 1011.4 0.8
02/09:00pm W 24 31 - - - - 10 Mostly cloudy Recent precip. 12.2 1011.4 0.8
02/08:58pm W 23 31 - - - - 10 Partly cloudy - 12.2 1011.5 0.8
02/08:36pm W 26 33 - - - - 5 Partly cloudy - 12.4 1011.5 0.4
02/08:30pm W 24 32 - - - - 10 Partly cloudy - 12.7 1011.6 0.2
02/08:11pm W 23 33 - - - - 10 Partly cloudy - 12.4 1011.6 0.2
02/08:09pm W 22 31 - - - - 10 Partly cloudy - 12.7 1011.7 0.2
02/08:00pm W 23 30 - - - - 6 Partly cloudy - 12.3 1011.6 0.2
02/07:58pm W 25 33 - - - - 4 Partly cloudy - 12.3 1011.6 0.2
02/07:32pm W 25 31 - - - - 5 Partly cloudy - 13.0 1011.3 0.0
02/07:30pm W 25 31 - - - - 9 Cloudy - 13.1 1011.3 0.0
02/07:00pm W 23 30 - - - - 10 Partly cloudy - 13.0 1011.1 0.0
02/06:53pm W 21 28 - - - - 10 Partly cloudy - 13.0 1011.1 0.0
02/06:46pm W 21 31 - - - - 7 Partly cloudy - 12.7 1011.1 0.0
02/06:38pm W 23 32 - - - - 5 Partly cloudy - 12.8 1011.1 0.0
02/06:33pm W 22 32 - - - - 10 Partly cloudy - 13.1 1011.1 0.0
02/06:30pm W 21 29 - - - - 10 Partly cloudy - 13.2 1011.1 0.0
02/06:19pm WNW 21 31 - - - - 10 Partly cloudy - 12.9 1011.1 0.0
02/06:00pm W 20 26 - - - - 10 Cloudy - 13.3 1011.2 0.0
02/05:30pm WNW 20 29 - - - - 10 Partly cloudy - 12.7 1011.3 0.0
02/05:25pm WNW 19 24 - - - - 10 Partly cloudy - 12.7 1011.4 0.0
02/05:05pm W 20 27 - - - - 5 Partly cloudy - 12.7 1011.5 0.0
02/05:04pm W 20 27 - - - - 7 Partly cloudy - 12.7 1011.4 0.0
02/05:01pm W 20 27 - - - - 10 Partly cloudy - 12.7 1011.4 0.0
02/05:00pm W 21 28 - - - - 10 Partly cloudy - 12.7 1011.4 0.0
02/04:39pm W 20 30 - - - - 10 Partly cloudy - 13.1 1011.5 0.0
02/04:30pm W 21 27 - - - - 10 Partly cloudy - 12.9 1011.2 0.0
02/04:18pm W 19 27 - - - - 10 Partly cloudy - 12.7 1011.3 0.0
02/04:08pm W 21 28 - - - - 5 Partly cloudy - 12.6 1011.4 0.0
02/04:06pm W 21 27 - - - - 6 Partly cloudy - 12.6 1011.4 0.0
02/04:00pm W 20 27 - - - - 10 Partly cloudy - 12.8 1011.4 0.0
02/03:54pm W 22 32 - - - - 7 Partly cloudy - 12.6 1011.3 0.0
02/03:42pm W 23 31 - - - - 10 Partly cloudy - 13.2 1011.1 0.0
02/03:30pm W 20 28 - - - - 10 Partly cloudy - 13.1 1011.3 0.0
02/03:00pm W 21 31 - - - - 10 Cloudy - 12.9 1011.3 0.0
02/02:59pm W 21 31 - - - - 10 Partly cloudy - 13.1 1011.3 0.0
02/02:39pm W 19 28 - - - - 10 Partly cloudy - 12.9 1011.5 0.0
02/02:37pm W 18 28 - - - - 10 Partly cloudy - 12.9 1011.5 0.0
02/02:30pm W 19 28 - - - - 7 Partly cloudy - 12.6 1011.6 0.0
02/02:28pm W 20 30 - - - - 5 Partly cloudy - 12.6 1011.7 0.0
02/02:21pm W 21 30 - - - - 5 Partly cloudy - 12.5 1011.7 0.0
02/02:08pm W 18 28 - - - - 10 Partly cloudy - 13.5 1011.8 0.0
02/02:00pm W 18 24 - - - - 10 Partly cloudy - 13.7 1011.7 0.0
02/01:50pm W 18 25 - - - - 10 Partly cloudy - 13.6 1012.0 0.0
02/01:30pm W 22 28 - - - - 10 Partly cloudy - 13.7 1012.0 0.0
02/01:00pm W 19 25 - - - - 10 Partly cloudy - 13.6 1012.1 0.0
02/12:30pm W 17 24 - - - - 10 Partly cloudy - 14.0 1012.3 0.0
02/12:00pm W 20 26 - - - - 10 Cloudy - 13.6 1012.4 0.0
02/11:30am W 18 24 - - - - 10 Partly cloudy - 14.1 1012.5 0.0
02/11:00am W 17 22 - - - - 10 Partly cloudy - 13.2 1013.1 0.0
02/10:30am W 17 23 - - - - 10 Partly cloudy - 13.7 1013.0 0.0
02/10:00am W 18 27 - - - - 10 Partly cloudy - 12.9 1013.2 0.0
02/09:52am W 17 27 - - - - 10 Partly cloudy - 12.9 1013.2 0.0
02/09:30am WNW 16 22 - - - - 10 Partly cloudy - 12.5 1013.1 0.0
02/09:29am WNW 16 22 - - - - 10 Partly cloudy - 12.5 1013.2 0.0
02/09:19am W 16 22 - - - - 10 Partly cloudy - 12.6 1013.2 0.0
02/09:10am WNW 16 22 - - - - 10 Partly cloudy - 12.4 1013.2 0.0
02/09:04am WNW 16 20 - - - - 10 Partly cloudy - 12.4 1013.2 0.0
02/09:00am W 16 21 - - - - 10 Cloudy Recent precip. 12.2 1013.2 0.2
02/08:44am W 15 26 - - - - 8 Partly cloudy - 12.0 1013.0 0.0
02/08:35am W 16 22 - - - - 4 Partly cloudy - 12.1 1013.0 0.0
02/08:33am W 16 22 - - - - 5 Partly cloudy - 12.3 1013.1 0.0
02/08:30am W 15 22 - - - - 10 Partly cloudy - 12.6 1013.1 0.0
02/08:00am W 19 24 - - - - 10 Partly cloudy - 12.6 1012.9 0.0
02/07:30am W 18 21 - - - - 10 Partly cloudy - 12.7 1012.8 0.0
02/07:00am W 19 22 - - - - 10 Partly cloudy - 12.5 1012.7 0.0
02/06:30am WSW 19 23 - - - - 10 Partly cloudy - 12.2 1012.5 0.0
02/06:00am WSW 20 25 - - - - 10 Mostly cloudy - 11.9 1012.2 0.0
02/05:30am WSW 23 28 - - - - 10 Partly cloudy - 11.6 1011.7 0.0
02/05:00am WSW 23 29 - - - - 10 Partly cloudy - 11.6 1011.2 0.0
02/04:30am WSW 23 28 - - - - 10 Partly cloudy - 11.4 1010.8 0.0
02/04:00am WSW 22 28 - - - - 10 Partly cloudy - 11.4 1010.6 0.0
02/03:30am WSW 20 26 - - - - 10 Partly cloudy - 11.1 1010.4 0.0
02/03:00am WSW 19 27 - - - - 10 Mostly cloudy - 11.1 1010.5 0.0
02/02:30am WSW 19 24 - - - - 10 Cloudy - 11.1 1010.4 0.0
02/02:00am WSW 19 23 - - - - 10 Cloudy - 11.1 1010.2 0.0
02/01:30am W 21 25 - - - - 10 Partly cloudy - 11.2 1010.1 0.0
02/01:00am WSW 21 26 - - - - 10 Partly cloudy - 11.4 1009.8 0.0
02/12:43am WSW 21 27 - - - - 10 Partly cloudy - 11.5 1009.8 0.0
02/12:30am WSW 21 27 - - - - 10 Partly cloudy - 11.7 1009.8 0.0
02/12:00am WSW 19 22 - - - - 10 Cloudy - 11.8 1009.8 0.0
 
Date/Time
EST
Wind Sea
Height
m
Swell Vis
km
Cloud Weather Temp
°C
Press
hPa
Rain since
9am
mm
Dir  Spd
kts
Gust
kts
Height
m
Period
s
Dir
01/11:51pm WSW 11 20 - - - - 10 Partly cloudy - 12.0 1009.8 0.0
01/11:30pm WNW 9 11 - - - - 10 Partly cloudy - 11.8 1009.6 0.0
01/11:00pm WNW 9 13 - - - - 10 Partly cloudy - 10.4 1009.6 0.0
01/10:30pm WNW 8 10 - - - - 10 Partly cloudy - 10.2 1009.5 0.0
01/10:00pm NNW 5 6 - - - - 10 Partly cloudy - 9.8 1009.3 0.0
01/09:30pm WNW 8 10 - - - - 10 Partly cloudy - 8.2 1009.1 0.0
01/09:00pm WNW 9 11 - - - - 10 Mostly clear - 10.3 1008.9 0.0
01/08:30pm NW 6 9 - - - - 10 Partly cloudy - 10.6 1008.6 0.0
01/08:21pm NNE 6 7 - - - - 10 Partly cloudy - 9.0 1008.4 0.0
01/08:00pm NE 4 5 - - - - 10 Partly cloudy - 7.6 1008.3 0.0
01/07:54pm NE 4 5 - - - - 10 Partly cloudy - 7.9 1008.3 0.0
01/07:30pm N 4 5 - - - - 10 - - 7.0 1008.0 0.0
01/07:00pm NNW 5 6 - - - - 10 Partly cloudy - 9.8 1007.5 0.0
01/06:30pm WNW 7 8 - - - - 10 - - 11.2 1007.2 0.0
01/06:00pm WNW 9 11 - - - - 10 Mostly clear - 11.9 1006.9 0.0
01/05:30pm WNW 8 12 - - - - 10 Partly cloudy - 11.9 1006.3 0.0
01/05:00pm WNW 9 13 - - - - 10 Partly cloudy - 12.5 1006.0 0.0
01/04:30pm WNW 8 10 - - - - 10 Partly cloudy - 12.6 1005.4 0.0
01/04:00pm WNW 11 14 - - - - 10 - - 13.1 1005.1 0.0
01/03:30pm WNW 9 13 - - - - 10 - - 13.7 1004.7 0.0
01/03:00pm WNW 10 13 - - - - 10 - - 13.6 1004.4 0.0
01/02:30pm WNW 12 16 - - - - 10 - - 14.1 1004.1 0.0
01/02:00pm NW 14 18 - - - - 10 - - 14.0 1003.8 0.0
01/01:30pm WNW 9 14 - - - - 10 - - 13.8 1003.7 0.0
01/01:00pm WNW 13 17 - - - - 10 Partly cloudy - 14.0 1003.7 0.0
01/12:30pm NNW 7 12 - - - - 10 Partly cloudy - 16.2 1003.3 0.0
01/12:00pm NNE 8 13 - - - - 10 Mostly clear - 16.3 1003.3 0.0
01/11:30am NNE 8 11 - - - - 10 Partly cloudy - 15.7 1003.6 0.0
01/11:00am NNE 9 13 - - - - 10 Cloudy - 15.7 1003.8 0.0
01/10:30am NNE 9 12 - - - - 10 Partly cloudy - 15.6 1003.7 0.0
01/10:00am N 8 10 - - - - 10 Partly cloudy - 15.0 1003.7 0.0
01/09:30am N 6 10 - - - - 10 Cloudy - 13.9 1003.6 0.0
01/09:00am NNE 6 10 - - - - 10 Cloudy - 13.1 1003.6 1.4
01/08:30am NNE 8 10 - - - - 10 Partly cloudy - 10.9 1003.6 1.4
01/08:00am NE 7 8 - - - - 10 Cloudy - 9.5 1003.5 1.4
01/07:30am NNE 8 10 - - - - 10 Partly cloudy - 9.1 1003.5 1.4
01/07:00am NE 7 8 - - - - 10 Partly cloudy - 8.1 1003.4 1.4
01/06:30am NNE 9 13 - - - - 10 Partly cloudy - 10.9 1003.4 1.4
01/06:00am NNE 7 11 - - - - 10 - - 11.3 1003.3 1.4
01/05:30am N 7 11 - - - - 10 Partly cloudy - 11.7 1003.4 1.4
01/05:00am NNW 9 15 - - - - 10 Partly cloudy - 12.7 1003.4 1.4
01/04:30am N 11 17 - - - - 10 Partly cloudy - 12.5 1003.4 1.4
01/04:00am N 10 16 - - - - 10 Partly cloudy - 12.6 1003.5 1.4
01/03:30am NNE 11 15 - - - - 10 Partly cloudy - 12.6 1004.0 1.4
01/03:00am NNE 9 13 - - - - 10 Mostly cloudy - 12.5 1004.4 1.4
01/02:30am N 8 13 - - - - 10 Partly cloudy - 12.5 1004.8 1.4
01/02:00am N 8 10 - - - - 10 Partly cloudy - 12.3 1004.9 1.4
01/01:30am N 9 14 - - - - 10 Partly cloudy - 12.2 1005.0 1.4
01/01:00am N 8 12 - - - - 10 Partly cloudy - 11.9 1005.6 1.4
01/12:30am N 8 12 - - - - 10 Partly cloudy - 11.7 1006.0 1.4
01/12:00am NNW 9 15 - - - - 10 Cloudy Recent precip. 11.6 1006.7 1.4
 
Date/Time
EST
Wind Sea
Height
m
Swell Vis
km
Cloud Weather Temp
°C
Press
hPa
Rain since
9am
mm
Dir  Spd
kts
Gust
kts
Height
m
Period
s
Dir
31/11:30pm N 10 15 - - - - 10 Partly cloudy - 11.9 1006.8 1.0
31/11:00pm N 8 13 - - - - 10 Partly cloudy - 11.7 1007.1 1.0
31/10:30pm NNE 4 6 - - - - 10 Partly cloudy - 11.0 1007.6 1.0
31/10:00pm NNE 6 8 - - - - 10 Partly cloudy - 11.2 1007.9 1.0
31/09:57pm N 5 7 - - - - 10 Partly cloudy - 11.3 1008.0 1.0
31/09:46pm NNW 8 11 - - - - 5 Partly cloudy - 11.6 1008.2 0.8
31/09:30pm NNW 7 12 - - - - 9 Partly cloudy - 12.3 1008.3 0.2
31/09:00pm N 6 8 - - - - 10 Cloudy - 12.5 1008.6 0.2
31/08:30pm N 5 6 - - - - 10 Partly cloudy - 12.5 1008.8 0.2
31/08:00pm N 5 7 - - - - 10 Partly cloudy - 12.4 1008.8 0.2
31/07:30pm NNW 6 8 - - - - 10 Cloudy - 12.0 1008.8 0.2
31/07:00pm NNW 6 8 - - - - 10 - - 11.5 1008.9 0.2
31/06:30pm N 5 8 - - - - 10 Partly cloudy - 11.7 1009.1 0.2
31/06:00pm NNW 7 11 - - - - 10 - - 12.0 1009.2 0.2
31/05:30pm NNW 8 12 - - - - 10 Partly cloudy - 12.4 1009.0 0.2
31/05:00pm NW 10 14 - - - - 10 Partly cloudy - 12.7 1009.1 0.2
31/04:30pm NW 11 17 - - - - 10 Partly cloudy - 12.9 1009.0 0.2
31/04:00pm NW 14 18 - - - - 10 Partly cloudy - 13.5 1009.1 0.2
31/03:30pm NW 13 18 - - - - 10 - - 13.6 1009.2 0.2
31/03:00pm NW 16 19 - - - - 10 - - 14.1 1008.9 0.2
31/02:30pm NW 14 18 - - - - 10 Partly cloudy - 14.5 1008.8 0.2
31/02:00pm WNW 12 16 - - - - 10 Partly cloudy - 13.5 1008.8 0.2
31/01:30pm NW 9 13 - - - - 10 Partly cloudy - 13.4 1009.1 0.0
31/01:00pm WNW 13 20 - - - - 10 Partly cloudy - 13.8 1009.4 0.0
31/12:30pm NW 14 19 - - - - 10 Partly cloudy - 14.2 1009.7 0.0
31/12:00pm NW 13 17 - - - - 10 Mostly cloudy - 14.2 1010.0 0.0
31/11:30am NW 12 16 - - - - 10 Partly cloudy - 14.0 1010.5 0.0
31/11:00am WNW 12 16 - - - - 10 Partly cloudy - 14.2 1010.8 0.0
31/10:30am WNW 11 15 - - - - 10 Partly cloudy - 14.3 1011.0 0.0
31/10:00am WNW 12 17 - - - - 10 Partly cloudy - 14.2 1011.1 0.0
31/09:30am NW 14 18 - - - - 10 Partly cloudy - 14.7 1011.2 0.0
31/09:00am NW 15 20 - - - - 10 Cloudy - 14.3 1010.9 1.0
31/08:30am NW 14 19 - - - - 10 Partly cloudy - 14.3 1010.8 1.0
31/08:00am NW 16 22 - - - - 10 Partly cloudy - 13.8 1010.8 1.0
31/07:30am NW 11 19 - - - - 10 Partly cloudy - 14.0 1010.7 1.0
31/07:00am NNW 9 16 - - - - 10 Partly cloudy - 13.5 1010.9 1.0

Other formats

Comma delimited format used in spreadsheet applications
http://www.bom.gov.au/fwo/IDT60701/IDT60701.94980.axf

JavaScript Object Notation format (JSON) in row-major order
http://www.bom.gov.au/fwo/IDT60701/IDT60701.94980.json

Data quality

Most of these data are generated automatically and are frequently updated. Quality checks on data are not normally performed. It is possible for incorrect values to appear. Refer to information at About Latest Weather Observations and please check the disclaimer before using these data.